Cumnock, North Carolina
Current Conditions -  °F | °C
As of 9:35 AM on Tuesday 27 Jan 2015 (Local Time) from KTTA Reporting Station
Overcast Overcast  
Wind Chill: 28°   Ceiling: 6000
Heat Index: 35°   Visibility: 10mi
Dew Point: 20°   Wind: 8mph
Humidity: 55%   Direction: 330°NNW
Pressure: 29.84"   Gusts: NA
Location:  35.55°N, 79.24°W
Report Text: KTTA 271435Z AUTO 33007KT 10SM OVC060 01/M07 A2984 RMK AO2 T00141068
Loading
Personal Weather Stations






























Interactive Weather Map New forecast layout! Learn more

10-Day Weather Forecast

Advertisements
Track Severe Weather on mobile